Time;durP1;ratioP1;P1;durP2;ratioP2;P2;SDS_P1;SDS_P2;PMS_P1;PMS_P2;Temp;Humidity;BMP_temperature;BMP_pressure;BME280_temperature;BME280_humidity;BME280_pressure;Samples;Min_cycle;Max_cycle;Signal;HPM_P1;HPM_P2
2023/09/07 00:00:49;;;;;;;;;;;;;;;22.07;66.06;95561.09;5116226;28;1031;-57
2023/09/07 00:03:15;;;;;;;;;;;;;;;22.06;66.23;95558.59;5116380;28;1043;-57
2023/09/07 00:05:41;;;;;;;;;;;;;;;22.07;66.55;95563.00;5116407;28;1011;-56
2023/09/07 00:08:07;;;;;;;;;;;;;;;22.02;67.15;95558.19;5116117;28;1001;-57
2023/09/07 00:10:36;;;;;;;;;;;;;;;21.75;68.79;95563.03;5115865;28;1064;-57
2023/09/07 00:13:02;;;;;;;;;;;;;;;21.83;69.73;95557.31;5115864;28;1910;-57
2023/09/07 00:15:29;;;;;;;;;;;;;;;21.78;69.42;95568.88;5145450;27;2494;-57
2023/09/07 00:17:55;;;;;;;;;;;;;;;21.75;71.91;95568.47;5157298;27;1039;-57
2023/09/07 00:20:21;;;;;;;;;;;;;;;21.72;71.51;95566.19;5157134;27;1067;-56
2023/09/07 00:22:47;;;;;;;;;;;;;;;21.67;69.68;95566.03;5137050;27;1188;-57
2023/09/07 00:25:13;;;;;;;;;;;;;;;21.40;73.96;95571.63;5136431;27;981;-56
2023/09/07 00:27:39;;;;;;;;;;;;;;;21.39;72.62;95570.78;5136442;27;999;-56
2023/09/07 00:30:06;;;;;;;;;;;;;;;21.43;70.92;95560.28;5136299;27;1048;-57
2023/09/07 00:32:32;;;;;;;;;;;;;;;21.51;70.22;95559.22;5136214;27;1910;-57
2023/09/07 00:34:58;;;;;;;;;;;;;;;21.61;69.70;95563.13;5136399;27;1067;-57
2023/09/07 00:37:24;;;;;;;;;;;;;;;21.67;68.15;95558.69;5136289;27;1011;-57
2023/09/07 00:39:52;;;;;;;;;;;;;;;21.82;67.42;95552.94;5135520;27;991;-56
2023/09/07 00:42:18;;;;;;;;;;;;;;;21.95;65.98;95552.81;5135814;27;963;-57
2023/09/07 00:44:44;;;;;;;;;;;;;;;22.00;65.91;95550.25;5136047;27;1018;-57
2023/09/07 00:47:11;;;;;;;;;;;;;;;21.91;66.10;95542.59;5136122;27;1114;-57
2023/09/07 00:49:37;;;;;;;;;;;;;;;21.80;67.29;95549.59;5136128;27;1000;-57
2023/09/07 00:52:05;;;;;;;;;;;;;;;21.83;66.23;95554.59;5135602;27;1079;-57
2023/09/07 00:54:31;;;;;;;;;;;;;;;21.86;66.52;95551.44;5135450;27;1910;-57
2023/09/07 00:56:57;;;;;;;;;;;;;;;21.92;65.80;95549.72;5135834;27;973;-57
2023/09/07 00:59:23;;;;;;;;;;;;;;;21.99;65.93;95551.31;5135473;27;1052;-57
2023/09/07 01:01:49;;;;;;;;;;;;;;;22.00;64.97;95541.25;5135820;27;1027;-57
2023/09/07 01:04:15;;;;;;;;;;;;;;;21.91;65.53;95539.88;5135519;27;977;-56
2023/09/07 01:06:45;;;;;;;;;;;;;;;21.92;65.31;95527.94;5135405;27;1032;-56
2023/09/07 01:09:14;;;;;;;;;;;;;;;21.91;67.00;95535.28;5135263;27;977;-57
2023/09/07 01:11:40;;;;;;;;;;;;;;;21.91;64.84;95532.56;5135744;27;1110;-57
2023/09/07 01:14:06;;;;;;;;;;;;;;;21.86;65.35;95531.56;5135399;27;1909;-57
2023/09/07 01:16:38;;;;;;;;;;;;;;;21.82;65.09;95531.16;5135315;27;1058;-56
2023/09/07 01:19:06;;;;;;;;;;;;;;;21.93;65.50;95533.16;5135221;27;1115;-56
2023/09/07 01:21:35;;;;;;;;;;;;;;;22.01;65.25;95538.31;5134948;27;1153;-57
2023/09/07 01:24:04;;;;;;;;;;;;;;;21.99;64.55;95526.00;5135388;27;972;-57
2023/09/07 01:26:30;;;;;;;;;;;;;;;21.86;66.16;95529.66;5134972;27;1169;-57
2023/09/07 01:28:56;;;;;;;;;;;;;;;21.81;65.86;95524.03;5135190;27;1013;-57
2023/09/07 01:31:22;;;;;;;;;;;;;;;21.86;65.58;95531.56;5134922;27;1040;-57
2023/09/07 01:33:48;;;;;;;;;;;;;;;21.89;65.37;95525.66;5134858;27;1913;-57
2023/09/07 01:36:14;;;;;;;;;;;;;;;21.90;66.10;95530.06;5134781;27;1048;-56
2023/09/07 01:38:40;;;;;;;;;;;;;;;21.92;66.51;95523.31;5134836;27;1304;-56
2023/09/07 01:41:06;;;;;;;;;;;;;;;21.90;66.34;95532.78;5134831;27;1035;-57
2023/09/07 01:43:31;;;;;;;;;;;;;;;21.83;66.49;95536.38;5134688;27;1031;-57
2023/09/07 01:45:57;;;;;;;;;;;;;;;21.79;67.77;95537.03;5134987;27;969;-57
2023/09/07 01:48:23;;;;;;;;;;;;;;;21.70;67.36;95536.47;5134946;27;981;-56
2023/09/07 01:50:53;;;;;;;;;;;;;;;21.75;67.63;95531.19;5133826;27;1047;-57
2023/09/07 01:53:19;;;;;;;;;;;;;;;21.46;69.47;95532.69;5134859;27;1914;-57
2023/09/07 01:55:45;;;;;;;;;;;;;;;21.30;69.74;95533.19;5134768;27;961;-57
2023/09/07 01:58:11;;;;;;;;;;;;;;;21.42;67.96;95531.44;5134628;27;982;-57
2023/09/07 02:00:38;;;;;;;;;;;;;;;21.54;67.39;95528.88;5134688;27;1036;-57
2023/09/07 02:03:04;;;;;;;;;;;;;;;21.60;66.62;95534.25;5134569;27;1063;-57
2023/09/07 02:05:32;;;;;;;;;;;;;;;21.61;66.68;95533.22;5134631;27;1058;-57
2023/09/07 02:07:58;;;;;;;;;;;;;;;21.69;65.69;95539.44;5134415;27;1067;-57
2023/09/07 02:10:24;;;;;;;;;;;;;;;21.59;67.58;95543.47;5134618;27;1052;-57
2023/09/07 02:12:50;;;;;;;;;;;;;;;21.49;67.41;95542.28;5134623;27;1918;-57
2023/09/07 02:15:16;;;;;;;;;;;;;;;21.48;68.49;95543.34;5134289;28;1091;-57
2023/09/07 02:17:44;;;;;;;;;;;;;;;21.55;68.21;95539.53;5134317;28;1298;-57
2023/09/07 02:20:11;;;;;;;;;;;;;;;21.69;66.11;95540.25;5134188;28;1067;-57
2023/09/07 02:22:37;;;;;;;;;;;;;;;21.73;66.32;95540.66;5116288;28;1201;-57
2023/09/07 02:25:05;;;;;;;;;;;;;;;21.73;66.22;95548.81;5114002;28;992;-56
2023/09/07 02:27:35;;;;;;;;;;;;;;;21.80;66.23;95549.59;5113902;28;1061;-57
2023/09/07 02:30:04;;;;;;;;;;;;;;;21.80;65.56;95542.25;5113671;28;1036;-57
2023/09/07 02:32:31;;;;;;;;;;;;;;;21.79;66.18;95542.47;5113513;28;1964;-57
2023/09/07 02:34:57;;;;;;;;;;;;;;;21.84;65.96;95545.38;5113645;28;1079;-57
2023/09/07 02:37:23;;;;;;;;;;;;;;;21.76;66.03;95537.47;5113547;28;1087;-57
2023/09/07 02:39:49;;;;;;;;;;;;;;;21.69;66.41;95547.59;5113609;28;1843;-57
2023/09/07 02:42:15;;;;;;;;;;;;;;;21.61;66.77;95546.81;5113480;28;1103;-57
2023/09/07 02:44:41;;;;;;;;;;;;;;;21.63;66.71;95541.16;5113628;28;1137;-57
2023/09/07 02:47:07;;;;;;;;;;;;;;;21.70;66.71;95551.97;5113522;28;1092;-57
2023/09/07 02:49:33;;;;;;;;;;;;;;;21.71;66.17;95545.50;5113360;28;958;-57
2023/09/07 02:51:59;;;;;;;;;;;;;;;21.72;65.97;95548.00;5113512;28;1222;-57
2023/09/07 02:54:25;;;;;;;;;;;;;;;21.60;67.73;95553.28;5113495;28;1918;-57
2023/09/07 02:56:51;;;;;;;;;;;;;;;21.50;68.11;95547.50;5113528;28;985;-57
2023/09/07 02:59:17;;;;;;;;;;;;;;;21.55;68.23;95553.13;5113330;28;1033;-57
2023/09/07 03:01:43;;;;;;;;;;;;;;;21.67;68.89;95549.72;5113417;28;1134;-57
2023/09/07 03:04:09;;;;;;;;;;;;;;;21.60;67.01;95547.84;5117234;28;1064;-57
2023/09/07 03:06:35;;;;;;;;;;;;;;;21.61;67.56;95554.97;5117505;28;992;-57
2023/09/07 03:09:01;;;;;;;;;;;;;;;21.51;67.56;95551.88;5117478;28;956;-57
2023/09/07 03:11:57;;;;;;;;;;;;;;;21.54;68.75;95559.63;5117278;28;1209;-57
2023/09/07 03:14:24;;;;;;;;;;;;;;;21.53;68.00;95555.25;5116979;28;1977;-58
2023/09/07 03:16:50;;;;;;;;;;;;;;;21.50;68.23;95554.84;5117081;28;1094;-57
2023/09/07 03:19:16;;;;;;;;;;;;;;;21.33;70.34;95558.06;5117191;28;1019;-58
2023/09/07 03:21:42;;;;;;;;;;;;;;;21.30;70.19;95555.75;5127629;27;1177;-58
2023/09/07 03:24:08;;;;;;;;;;;;;;;21.29;69.82;95564.16;5137663;27;1055;-58
2023/09/07 03:26:34;;;;;;;;;;;;;;;21.21;70.65;95557.91;5137426;27;1115;-57
2023/09/07 03:29:00;;;;;;;;;;;;;;;21.02;72.05;95556.16;5137356;27;1043;-57
2023/09/07 03:31:26;;;;;;;;;;;;;;;21.08;72.40;95558.00;5137574;27;1007;-57
2023/09/07 03:33:52;;;;;;;;;;;;;;;21.13;70.58;95555.44;5137462;27;1913;-57
2023/09/07 03:36:18;;;;;;;;;;;;;;;21.23;70.54;95563.97;5137344;27;1080;-57
2023/09/07 03:38:44;;;;;;;;;;;;;;;21.00;71.20;95560.94;5137378;27;1003;-57
2023/09/07 03:41:10;;;;;;;;;;;;;;;21.16;70.78;95563.16;5136045;27;2529;-56
2023/09/07 03:43:36;;;;;;;;;;;;;;;21.15;72.63;95566.94;5137043;27;1088;-57
2023/09/07 03:46:02;;;;;;;;;;;;;;;21.20;73.33;95569.00;5137045;27;1040;-57
2023/09/07 03:48:28;;;;;;;;;;;;;;;21.21;72.17;95563.34;5136948;27;1039;-57
2023/09/07 03:50:54;;;;;;;;;;;;;;;21.34;71.43;95572.47;5136530;27;1099;-57
2023/09/07 03:53:20;;;;;;;;;;;;;;;21.04;74.36;95562.19;5116224;28;1985;-56
2023/09/07 03:55:46;;;;;;;;;;;;;;;20.89;75.83;95562.47;5116289;28;1079;-57
2023/09/07 03:58:12;;;;;;;;;;;;;;;20.82;78.16;95559.75;5116525;28;1000;-56
2023/09/07 04:00:39;;;;;;;;;;;;;;;20.80;78.33;95571.91;5116194;28;969;-57
2023/09/07 04:03:05;;;;;;;;;;;;;;;20.73;79.11;95565.66;5116463;28;1041;-56
2023/09/07 04:05:32;;;;;;;;;;;;;;;20.69;80.71;95572.56;5116073;28;1084;-56
2023/09/07 04:07:57;;;;;;;;;;;;;;;20.68;81.43;95569.03;5116358;28;1000;-56
2023/09/07 04:10:23;;;;;;;;;;;;;;;20.65;84.11;95570.28;5116085;28;985;-56
2023/09/07 04:12:49;;;;;;;;;;;;;;;20.30;83.25;95577.88;5115960;28;1996;-56
2023/09/07 04:15:15;;;;;;;;;;;;;;;20.24;86.54;95574.13;5115255;28;1045;-56
2023/09/07 04:17:41;;;;;;;;;;;;;;;19.99;87.76;95576.63;5115914;28;1016;-56
2023/09/07 04:20:08;;;;;;;;;;;;;;;20.11;88.62;95578.72;5114629;28;2573;-57
2023/09/07 04:22:35;;;;;;;;;;;;;;;20.01;90.43;95574.53;5113078;28;1197;-56
2023/09/07 04:25:01;;;;;;;;;;;;;;;20.04;89.96;95574.13;5115781;28;1036;-57
2023/09/07 04:27:27;;;;;;;;;;;;;;;20.24;84.68;95575.97;5114509;28;2448;-57
2023/09/07 04:29:53;;;;;;;;;;;;;;;20.23;86.58;95583.28;5115904;28;966;-57
2023/09/07 04:32:19;;;;;;;;;;;;;;;20.05;88.48;95581.25;5115739;28;1025;-57
2023/09/07 04:34:45;;;;;;;;;;;;;;;19.95;91.11;95585.41;5115696;28;1978;-57
2023/09/07 04:37:11;;;;;;;;;;;;;;;20.17;87.38;95592.28;5115766;28;1047;-57
2023/09/07 04:39:37;;;;;;;;;;;;;;;20.35;86.05;95594.34;5115590;28;988;-56
2023/09/07 04:42:03;;;;;;;;;;;;;;;20.32;87.23;95602.94;5115997;28;987;-57
2023/09/07 04:44:29;;;;;;;;;;;;;;;20.34;85.51;95598.13;5115239;28;991;-57
2023/09/07 04:46:55;;;;;;;;;;;;;;;20.47;84.48;95603.53;5115555;28;962;-55
2023/09/07 04:49:22;;;;;;;;;;;;;;;20.59;84.33;95597.44;5115390;28;978;-58
2023/09/07 04:51:49;;;;;;;;;;;;;;;20.61;84.51;95596.19;5115271;28;1068;-58
2023/09/07 04:54:16;;;;;;;;;;;;;;;20.64;83.97;95600.38;5096930;28;1910;-57
2023/09/07 04:56:42;;;;;;;;;;;;;;;20.37;88.10;95597.69;5115694;28;977;-56
2023/09/07 04:59:07;;;;;;;;;;;;;;;20.24;89.17;95597.69;5114075;28;2486;-56
2023/09/07 05:01:33;;;;;;;;;;;;;;;20.41;87.36;95593.50;5115317;28;1120;-57
2023/09/07 05:04:01;;;;;;;;;;;;;;;20.45;86.76;95593.91;5115304;28;1008;-57
2023/09/07 05:06:27;;;;;;;;;;;;;;;20.53;85.73;95596.41;5115001;28;1025;-57
2023/09/07 05:08:53;;;;;;;;;;;;;;;20.55;86.71;95598.91;5115176;28;1109;-57
2023/09/07 05:11:19;;;;;;;;;;;;;;;20.47;87.64;95597.25;5114834;28;969;-56
2023/09/07 05:13:45;;;;;;;;;;;;;;;20.40;88.10;95601.88;5114687;28;1914;-57
2023/09/07 05:16:11;;;;;;;;;;;;;;;20.48;87.66;95601.63;5114901;28;961;-57
2023/09/07 05:18:37;;;;;;;;;;;;;;;20.56;87.87;95600.56;5115036;28;977;-57
2023/09/07 05:21:13;;;;;;;;;;;;;;;20.62;87.44;95597.03;5114564;28;1154;-57
2023/09/07 05:23:39;;;;;;;;;;;;;;;20.67;87.39;95595.34;5114763;28;993;-56
2023/09/07 05:26:05;;;;;;;;;;;;;;;20.81;86.71;95589.88;5114506;28;1028;-56
2023/09/07 05:28:31;;;;;;;;;;;;;;;21.00;85.12;95588.13;5114781;28;997;-56
2023/09/07 05:30:57;;;;;;;;;;;;;;;21.06;84.97;95588.09;5114583;28;1045;-57
2023/09/07 05:33:23;;;;;;;;;;;;;;;21.11;85.94;95590.16;5096560;28;1914;-56
2023/09/07 05:35:49;;;;;;;;;;;;;;;21.28;84.55;95589.66;5114374;28;1095;-57
2023/09/07 05:38:15;;;;;;;;;;;;;;;21.42;82.12;95596.72;5114378;28;953;-56
2023/09/07 05:40:42;;;;;;;;;;;;;;;21.57;79.25;95590.97;5114380;28;1086;-57
2023/09/07 05:43:08;;;;;;;;;;;;;;;21.70;73.66;95600.94;5114258;28;1091;-57
2023/09/07 05:45:38;;;;;;;;;;;;;;;21.72;72.13;95601.56;5114397;28;1080;-56
2023/09/07 05:48:04;;;;;;;;;;;;;;;21.71;71.66;95597.19;5114191;28;1099;-57
2023/09/07 05:50:34;;;;;;;;;;;;;;;21.75;71.17;95599.25;5114207;28;1048;-56
2023/09/07 05:53:00;;;;;;;;;;;;;;;21.79;71.43;95607.81;5113942;28;1917;-57
2023/09/07 05:55:26;;;;;;;;;;;;;;;21.86;70.20;95602.31;5113878;28;1147;-57
2023/09/07 05:57:57;;;;;;;;;;;;;;;21.87;69.20;95602.06;5114318;28;1147;-56
2023/09/07 06:00:23;;;;;;;;;;;;;;;21.89;68.84;95608.13;5113883;28;1048;-57
2023/09/07 06:02:49;;;;;;;;;;;;;;;21.92;70.02;95615.88;5114137;28;1068;-57
2023/09/07 06:05:16;;;;;;;;;;;;;;;21.97;70.21;95613.31;5113872;28;924;-57
2023/09/07 06:07:43;;;;;;;;;;;;;;;22.06;69.67;95619.31;5113889;28;1056;-57
2023/09/07 06:10:09;;;;;;;;;;;;;;;22.19;69.26;95618.38;5113857;28;1023;-57
2023/09/07 06:12:35;;;;;;;;;;;;;;;22.41;68.16;95618.84;5114121;28;1044;-57
2023/09/07 06:15:01;;;;;;;;;;;;;;;22.63;67.39;95619.25;5113876;28;1129;-57
2023/09/07 06:17:27;;;;;;;;;;;;;;;23.05;67.90;95611.28;5113830;28;1040;-57
2023/09/07 06:19:54;;;;;;;;;;;;;;;23.22;65.03;95614.22;5113878;28;1046;-57
2023/09/07 06:22:20;;;;;;;;;;;;;;;23.40;64.25;95627.00;5097957;28;1149;-57
2023/09/07 06:24:46;;;;;;;;;;;;;;;23.38;64.21;95623.66;5093316;28;1102;-57
2023/09/07 06:27:12;;;;;;;;;;;;;;;23.45;62.84;95627.16;5093541;28;1074;-56
2023/09/07 06:29:38;;;;;;;;;;;;;;;23.37;64.12;95622.00;5093365;28;1040;-56
2023/09/07 06:32:04;;;;;;;;;;;;;;;23.32;62.06;95621.88;5093402;28;1040;-56
2023/09/07 06:34:30;;;;;;;;;;;;;;;23.42;63.73;95629.50;5093289;28;1914;-56
2023/09/07 06:36:56;;;;;;;;;;;;;;;23.55;61.63;95626.59;5093574;28;1076;-55
2023/09/07 06:39:22;;;;;;;;;;;;;;;23.72;64.01;95629.50;5097269;28;1068;-56
2023/09/07 06:41:48;;;;;;;;;;;;;;;23.91;60.71;95638.50;5079693;28;1002;-58
2023/09/07 06:44:14;;;;;;;;;;;;;;;24.15;59.80;95632.03;5097227;28;1056;-57
2023/09/07 06:46:40;;;;;;;;;;;;;;;24.43;59.76;95630.50;5097470;28;1056;-57
2023/09/07 06:49:06;;;;;;;;;;;;;;;24.57;56.58;95633.03;5097433;28;1063;-56
2023/09/07 06:51:32;;;;;;;;;;;;;;;24.88;58.46;95629.94;5102738;28;1215;-56
2023/09/07 06:53:58;;;;;;;;;;;;;;;24.99;56.46;95631.00;5117743;28;1913;-56
2023/09/07 06:56:26;;;;;;;;;;;;;;;25.04;56.87;95628.38;5117663;28;1053;-56
2023/09/07 06:58:52;;;;;;;;;;;;;;;25.22;54.52;95634.78;5117783;28;991;-56
2023/09/07 07:01:18;;;;;;;;;;;;;;;25.33;54.79;95632.03;5099444;28;992;-56
2023/09/07 07:03:44;;;;;;;;;;;;;;;25.46;53.17;95628.19;5117509;28;1027;-56
2023/09/07 07:06:10;;;;;;;;;;;;;;;25.43;54.57;95625.09;5117527;28;1060;-56
2023/09/07 07:08:36;;;;;;;;;;;;;;;25.39;52.69;95627.50;5116978;27;2553;-56
2023/09/07 07:11:02;;;;;;;;;;;;;;;25.55;51.83;95628.63;5117477;28;977;-56
2023/09/07 07:13:29;;;;;;;;;;;;;;;25.83;52.84;95627.78;5117648;28;1909;-56
2023/09/07 07:15:55;;;;;;;;;;;;;;;26.06;50.29;95628.78;5118762;27;2424;-56
2023/09/07 07:18:21;;;;;;;;;;;;;;;26.14;49.90;95628.34;5157001;27;2932;-55
2023/09/07 07:20:50;;;;;;;;;;;;;;;26.29;50.01;95634.13;5155216;27;1220;-55
2023/09/07 07:23:16;;;;;;;;;;;;;;;26.32;51.15;95629.22;5137469;27;1048;-56
2023/09/07 07:25:42;;;;;;;;;;;;;;;26.35;49.10;95634.19;5137501;27;1139;-56
2023/09/07 07:28:08;;;;;;;;;;;;;;;26.38;48.78;95633.69;5137787;27;988;-56
2023/09/07 07:30:36;;;;;;;;;;;;;;;26.64;50.50;95637.72;5137605;27;1051;-56
2023/09/07 07:33:03;;;;;;;;;;;;;;;26.55;51.27;95630.97;5137276;27;1965;-56
2023/09/07 07:35:36;;;;;;;;;;;;;;;26.85;49.47;95638.84;5136064;27;2580;-55
2023/09/07 07:38:03;;;;;;;;;;;;;;;27.01;47.05;95639.88;5137154;27;1024;-55
2023/09/07 07:40:30;;;;;;;;;;;;;;;27.10;46.42;95640.28;5137386;27;993;-54
2023/09/07 07:42:56;;;;;;;;;;;;;;;27.35;46.68;95643.38;5135841;27;2501;-55
2023/09/07 07:45:22;;;;;;;;;;;;;;;27.07;47.58;95631.50;5137327;27;1055;-56
2023/09/07 07:47:48;;;;;;;;;;;;;;;27.03;49.09;95635.81;5137163;27;1012;-56
2023/09/07 07:50:14;;;;;;;;;;;;;;;26.87;48.16;95643.00;5135727;27;980;-56
2023/09/07 07:52:40;;;;;;;;;;;;;;;26.77;48.55;95637.38;5136727;27;1914;-56
2023/09/07 07:55:06;;;;;;;;;;;;;;;26.84;48.16;95632.53;5137234;27;996;-55
2023/09/07 07:57:32;;;;;;;;;;;;;;;26.99;46.68;95626.41;5137059;27;961;-55
2023/09/07 07:59:58;;;;;;;;;;;;;;;26.84;44.75;95640.78;5137158;27;1050;-56
2023/09/07 08:02:25;;;;;;;;;;;;;;;26.86;45.67;95640.50;5136703;27;1025;-56
2023/09/07 08:04:50;;;;;;;;;;;;;;;26.67;46.53;95640.78;5136677;27;1142;-56
2023/09/07 08:07:16;;;;;;;;;;;;;;;26.18;43.26;95645.13;5136549;27;1012;-56
2023/09/07 08:09:43;;;;;;;;;;;;;;;25.71;42.85;95652.50;5136541;27;1040;-56
2023/09/07 08:12:09;;;;;;;;;;;;;;;25.80;43.96;95646.59;5136778;27;968;-55
2023/09/07 08:14:35;;;;;;;;;;;;;;;25.96;44.83;95640.38;5136357;27;1906;-56
2023/09/07 08:17:01;;;;;;;;;;;;;;;26.18;44.63;95635.03;5136503;27;1028;-56
2023/09/07 08:19:30;;;;;;;;;;;;;;;26.33;43.20;95647.31;5136349;27;1037;-56
2023/09/07 08:21:57;;;;;;;;;;;;;;;26.34;43.19;95652.56;5123672;27;1278;-56
2023/09/07 08:24:23;;;;;;;;;;;;;;;26.38;42.37;95652.88;5115653;28;949;-56
2023/09/07 08:26:50;;;;;;;;;;;;;;;26.62;44.39;95640.69;5115969;28;1029;-55
2023/09/07 08:29:20;;;;;;;;;;;;;;;26.75;43.08;95653.25;5115922;28;984;-56
2023/09/07 08:31:47;;;;;;;;;;;;;;;26.85;43.21;95652.56;5115558;28;1044;-56
2023/09/07 08:34:15;;;;;;;;;;;;;;;26.70;43.12;95655.09;5115481;28;1905;-56
2023/09/07 08:36:40;;;;;;;;;;;;;;;26.62;42.20;95650.84;5115528;28;1020;-55
2023/09/07 08:39:09;;;;;;;;;;;;;;;26.63;42.32;95650.56;5115804;28;982;-56
2023/09/07 08:41:43;;;;;;;;;;;;;;;26.59;42.24;95654.91;5115600;28;966;-56
2023/09/07 08:44:10;;;;;;;;;;;;;;;26.42;42.37;95646.66;5115487;28;953;-55
2023/09/07 08:46:36;;;;;;;;;;;;;;;26.27;42.87;95644.50;5097185;28;1198;-56
2023/09/07 08:49:04;;;;;;;;;;;;;;;26.25;42.92;95638.41;5115472;28;1099;-56
2023/09/07 08:51:31;;;;;;;;;;;;;;;26.31;43.20;95644.81;5100634;28;2559;-56
2023/09/07 08:54:00;;;;;;;;;;;;;;;26.46;42.65;95641.50;5115442;28;2033;-56
2023/09/07 08:56:26;;;;;;;;;;;;;;;26.15;42.41;95642.91;5115219;28;1045;-56
2023/09/07 08:58:52;;;;;;;;;;;;;;;26.25;41.88;95641.16;5115989;27;2484;-56
2023/09/07 09:01:18;;;;;;;;;;;;;;;26.18;42.96;95626.81;5114680;28;1063;-58
2023/09/07 09:03:45;;;;;;;;;;;;;;;26.14;42.93;95630.28;5114887;28;1040;-58
2023/09/07 09:06:12;;;;;;;;;;;;;;;25.86;42.01;95638.25;5114832;28;913;-58
2023/09/07 09:08:41;;;;;;;;;;;;;;;25.62;42.25;95639.44;5115055;28;965;-59
2023/09/07 09:11:09;;;;;;;;;;;;;;;25.53;42.67;95638.97;5115155;28;1019;-59
2023/09/07 09:13:34;;;;;;;;;;;;;;;25.53;43.03;95625.28;5114642;28;1983;-58
2023/09/07 09:16:01;;;;;;;;;;;;;;;25.53;44.10;95633.50;5114783;28;1067;-58
2023/09/07 09:18:27;;;;;;;;;;;;;;;25.55;42.51;95636.00;5114631;28;976;-58
2023/09/07 09:20:58;;;;;;;;;;;;;;;25.47;42.63;95639.97;5118333;27;1166;-57
2023/09/07 09:23:34;;;;;;;;;;;;;;;25.39;42.61;95638.44;5135235;27;1051;-57
2023/09/07 09:26:01;;;;;;;;;;;;;;;25.37;42.17;95643.31;5135042;27;1045;-58
2023/09/07 09:28:31;;;;;;;;;;;;;;;25.33;42.33;95647.63;5135299;27;1011;-58
2023/09/07 09:30:58;;;;;;;;;;;;;;;25.47;43.96;95640.78;5135070;27;965;-58
2023/09/07 09:33:26;;;;;;;;;;;;;;;25.46;43.25;95628.19;5134788;27;1992;-58
2023/09/07 09:35:52;;;;;;;;;;;;;;;25.54;43.59;95629.72;5135157;27;1032;-57
2023/09/07 09:38:18;;;;;;;;;;;;;;;25.52;43.34;95635.41;5135141;27;1023;-56
2023/09/07 09:40:45;;;;;;;;;;;;;;;25.45;43.59;95636.63;5134893;27;980;-56
2023/09/07 09:43:12;;;;;;;;;;;;;;;25.43;41.03;95645.09;5134783;27;1028;-57
2023/09/07 09:45:38;;;;;;;;;;;;;;;25.36;41.87;95638.91;5134727;27;1052;-57
2023/09/07 09:48:05;;;;;;;;;;;;;;;25.20;41.57;95645.94;5135022;27;1048;-56
2023/09/07 09:50:37;;;;;;;;;;;;;;;25.04;40.86;95649.41;5134788;27;1068;-55
2023/09/07 09:53:06;;;;;;;;;;;;;;;25.08;41.76;95645.13;5134499;27;2037;-55
2023/09/07 09:55:33;;;;;;;;;;;;;;;25.28;42.36;95644.78;5116256;27;1123;-56
2023/09/07 09:57:59;;;;;;;;;;;;;;;25.27;41.87;95637.63;5134511;27;1036;-55
2023/09/07 10:00:26;;;;;;;;;;;;;;;25.38;42.64;95650.44;5134700;27;973;-55
2023/09/07 10:03:00;;;;;;;;;;;;;;;25.52;42.08;95629.94;5134844;27;956;-56
2023/09/07 10:05:27;;;;;;;;;;;;;;;25.76;41.88;95629.84;5134703;27;1006;-55
2023/09/07 10:07:52;;;;;;;;;;;;;;;26.02;42.81;95630.34;5134537;27;1033;-56
2023/09/07 10:10:19;;;;;;;;;;;;;;;26.07;40.98;95631.28;5134644;27;961;-55
2023/09/07 10:12:50;;;;;;;;;;;;;;;26.15;40.16;95626.47;5133539;27;1910;-56
2023/09/07 10:15:23;;;;;;;;;;;;;;;26.39;40.70;95621.63;5134288;27;1036;-56
2023/09/07 10:17:50;;;;;;;;;;;;;;;26.48;40.07;95622.88;5134605;28;1091;-54
2023/09/07 10:20:17;;;;;;;;;;;;;;;26.67;41.67;95629.81;5134474;28;1024;-56
2023/09/07 10:22:43;;;;;;;;;;;;;;;26.73;40.71;95635.34;5134251;28;1220;-56
2023/09/07 10:25:19;;;;;;;;;;;;;;;26.57;40.70;95623.31;5134536;28;1037;-55
2023/09/07 10:27:45;;;;;;;;;;;;;;;26.66;42.01;95619.09;5134536;28;957;-56
2023/09/07 10:30:19;;;;;;;;;;;;;;;26.77;42.29;95620.06;5134343;28;1049;-56
2023/09/07 10:32:45;;;;;;;;;;;;;;;26.58;41.38;95617.56;5134335;28;969;-56
2023/09/07 10:35:15;;;;;;;;;;;;;;;26.55;41.37;95626.28;5134228;28;1020;-55
2023/09/07 10:37:44;;;;;;;;;;;;;;;26.64;41.16;95619.34;5134362;28;948;-55
2023/09/07 10:40:11;;;;;;;;;;;;;;;26.75;40.86;95625.81;5134078;28;1027;-55
2023/09/07 10:42:38;;;;;;;;;;;;;;;26.97;41.41;95622.28;5134404;28;1024;-56
2023/09/07 10:45:16;;;;;;;;;;;;;;;26.73;40.20;95627.13;5134173;28;969;-55
2023/09/07 10:47:45;;;;;;;;;;;;;;;26.77;41.69;95623.66;5134105;28;1027;-56
2023/09/07 10:50:13;;;;;;;;;;;;;;;26.78;41.28;95619.00;5134182;28;962;-56
2023/09/07 10:52:42;;;;;;;;;;;;;;;26.44;39.97;95619.00;5118754;28;1227;-56
2023/09/07 10:55:10;;;;;;;;;;;;;;;26.35;41.00;95620.47;5113420;28;1910;-56
2023/09/07 10:57:43;;;;;;;;;;;;;;;26.63;40.89;95623.16;5113369;28;1039;-56
2023/09/07 11:00:10;;;;;;;;;;;;;;;26.86;41.30;95610.31;5113442;28;1036;-56
2023/09/07 11:02:37;;;;;;;;;;;;;;;26.76;40.58;95626.63;5113708;28;1032;-55
2023/09/07 11:05:03;;;;;;;;;;;;;;;26.75;40.71;95617.59;5113281;28;914;-56
2023/09/07 11:07:29;;;;;;;;;;;;;;;26.62;40.89;95607.78;5112360;28;2550;-56
2023/09/07 11:09:55;;;;;;;;;;;;;;;26.70;41.99;95608.47;5113386;28;1019;-55
2023/09/07 11:12:21;;;;;;;;;;;;;;;26.81;41.02;95608.34;5113177;28;1028;-55
2023/09/07 11:14:48;;;;;;;;;;;;;;;27.04;41.52;95601.78;5113155;28;1988;-55
2023/09/07 11:17:15;;;;;;;;;;;;;;;27.28;40.87;95615.31;5126257;28;2527;-55
2023/09/07 11:19:41;;;;;;;;;;;;;;;27.54;38.36;95626.59;5133692;28;1083;-55
2023/09/07 11:22:10;;;;;;;;;;;;;;;27.16;37.92;95609.09;5119508;28;1156;-54
2023/09/07 11:24:36;;;;;;;;;;;;;;;26.84;40.17;95612.50;5116212;28;968;-54
2023/09/07 11:27:02;;;;;;;;;;;;;;;26.71;39.00;95608.19;5117170;28;1048;-55
2023/09/07 11:29:31;;;;;;;;;;;;;;;26.66;38.96;95614.44;5117026;28;1035;-54
2023/09/07 11:32:08;;;;;;;;;;;;;;;26.42;39.43;95615.66;5116667;28;1083;-55
2023/09/07 11:34:34;;;;;;;;;;;;;;;26.28;40.98;95610.53;5118359;27;2559;-55
2023/09/07 11:37:04;;;;;;;;;;;;;;;26.27;40.52;95611.63;5137526;27;1016;-55
2023/09/07 11:39:30;;;;;;;;;;;;;;;26.03;39.66;95621.88;5137441;27;1007;-55
2023/09/07 11:41:56;;;;;;;;;;;;;;;25.98;39.79;95607.25;5137422;27;974;-55
2023/09/07 11:44:22;;;;;;;;;;;;;;;25.95;40.53;95608.56;5137043;27;1049;-55
2023/09/07 11:46:48;;;;;;;;;;;;;;;26.00;40.10;95605.94;5136922;27;918;-55
2023/09/07 11:49:14;;;;;;;;;;;;;;;25.85;39.56;95609.19;5136910;27;1084;-54
2023/09/07 11:51:40;;;;;;;;;;;;;;;25.71;40.46;95600.47;5143913;27;1225;-56
2023/09/07 11:54:06;;;;;;;;;;;;;;;25.81;41.11;95599.81;5157750;27;1905;-57
2023/09/07 11:56:32;;;;;;;;;;;;;;;26.07;41.20;95597.56;5157608;27;999;-57
2023/09/07 11:58:58;;;;;;;;;;;;;;;25.99;40.23;95590.59;5157561;27;1024;-57
2023/09/07 12:01:26;;;;;;;;;;;;;;;25.84;40.23;95591.13;5157568;27;1040;-56
2023/09/07 12:03:52;;;;;;;;;;;;;;;25.84;40.01;95599.34;5157485;27;1118;-56
2023/09/07 12:06:18;;;;;;;;;;;;;;;25.82;40.19;95592.41;5157359;27;1071;-56
2023/09/07 12:08:58;;;;;;;;;;;;;;;25.80;39.91;95595.44;5138987;27;1023;-56
2023/09/07 12:11:24;;;;;;;;;;;;;;;25.80;40.21;95592.69;5157621;27;1029;-56
2023/09/07 12:13:50;;;;;;;;;;;;;;;25.83;38.85;95597.66;5138780;27;1979;-56
2023/09/07 12:16:16;;;;;;;;;;;;;;;25.76;38.69;95596.97;5157190;27;1067;-56
2023/09/07 12:18:42;;;;;;;;;;;;;;;25.73;38.75;95594.75;5157202;27;1035;-56
2023/09/07 12:21:08;;;;;;;;;;;;;;;25.57;40.42;95593.59;5133012;27;1168;-56
2023/09/07 12:23:34;;;;;;;;;;;;;;;25.52;39.70;95597.09;5136635;27;965;-56
2023/09/07 12:26:01;;;;;;;;;;;;;;;25.41;40.07;95589.75;5136787;27;1115;-56
2023/09/07 12:28:27;;;;;;;;;;;;;;;25.36;41.14;95575.97;5136143;27;1028;-56
2023/09/07 12:30:53;;;;;;;;;;;;;;;25.40;41.34;95582.63;5136500;27;945;-56
2023/09/07 12:33:19;;;;;;;;;;;;;;;25.45;40.96;95579.97;5135951;27;1989;-56
2023/09/07 12:35:45;;;;;;;;;;;;;;;25.48;40.37;95587.72;5135674;27;1032;-56
2023/09/07 12:38:17;;;;;;;;;;;;;;;25.47;39.58;95587.94;5136332;27;1044;-55
2023/09/07 12:40:46;;;;;;;;;;;;;;;25.39;40.00;95586.44;5136378;27;1047;-56
2023/09/07 12:43:12;;;;;;;;;;;;;;;25.48;40.04;95590.44;5117602;27;1048;-57
2023/09/07 12:45:38;;;;;;;;;;;;;;;25.59;40.22;95580.53;5136139;27;1014;-57
2023/09/07 12:48:04;;;;;;;;;;;;;;;25.76;40.44;95576.97;5136257;27;968;-54
2023/09/07 12:50:30;;;;;;;;;;;;;;;25.81;40.71;95572.44;5135985;27;1051;-55
2023/09/07 12:52:56;;;;;;;;;;;;;;;25.99;40.63;95574.16;5135633;27;1905;-56
2023/09/07 12:55:23;;;;;;;;;;;;;;;25.92;39.99;95575.38;5135702;27;1008;-56
2023/09/07 12:57:49;;;;;;;;;;;;;;;25.80;39.39;95580.88;5117636;27;974;-56